METAR Data
IDs: Format: Raw Decoded Include TAF

Data at: 0233 UTC 19 Oct 2021

KHOU 190153Z 14005KT 10SM CLR 20/13 A3008 RMK AO2 SLP191 T02000128